Terminal Aerodrome Forecast
Issued by NWS Wilmington, OH

Current Version | Previous Version | Graphics & Text | Print | Product List | Glossary On
Versions: 1 2 3 4 5 6 7 8 9 10 11 12 13 14 15 16 17 18 19 20 21 22 23 24 25 26 27 28 29
000
FTUS41 KILN 262300
TAFCVG
TAF
KCVG 262339Z 2700/2806 20011KT P6SM SCT040 BKN200
      TEMPO 2700/2701 5SM -SHRA BR OVC040
     FM270900 20007KT 5SM BR SCT010
     FM271300 22009KT P6SM FEW030
     FM272000 23011KT P6SM VCTS BKN035CB=

USA.gov is the U.S. government's official web portal to all federal, state and local government web resources and services.